• Join FlightAware (Why Join?)
  • Login
  • US Flag GB Flag 
19:12 EDT


 

Airport Tracker/Info


-or-


 

Live Flight TrackerFlight Track Log ✈ MAS370 ✈ 08-Mar-2014 ✈ WMKK / KUL - ZBAA / PEK

Flight Track Log - Related Links

Times and Time Zones

All times are in EST time to prevent confusion due to time zone crossing. See the MAS370 flight status page for this flight to view local times or setup timezone preferences in your user account.

Time Position Orientation Groundspeed Altitude Reporting Facility
EST Latitude Longitude Course Direction KTS MPH feet Rate Location/Type
11:43 2.8444 101.6604 333° Northwest 235 270 2,400  Level FlightAware ADS-B
11:43 2.8751 101.6607 24° Northeast 257 296 3,100 1,980 Climbing FlightAware ADS-B
11:44 2.8953 101.6698 26° Northeast 262 302 4,000 2,820 Climbing FlightAware ADS-B
11:44 2.9203 101.6822 27° Northeast 267 307 5,000 2,760 Climbing FlightAware ADS-B
11:44 2.9342 101.6891 26° Northeast 270 311 5,800 2,820 Climbing FlightAware ADS-B
11:45 2.9638 101.7035 26° Northeast 273 314 6,900 2,940 Climbing FlightAware ADS-B
11:45 3.0097 101.7254 26° Northeast 282 325 8,800 2,820 Climbing FlightAware ADS-B
11:46 3.0334 101.7367 26° Northeast 285 328 9,700 1,620 Climbing FlightAware ADS-B
11:47 3.1119 101.7740 26° Northeast 347 399 11,000 1,440 Climbing FlightAware ADS-B (WMSA / SZB)
11:47 3.1337 101.7844 25° Northeast 332 382 11,500 1,980 Climbing FlightAware ADS-B
11:47 3.1807 101.8068 26° Northeast 369 425 12,500 2,220 Climbing FlightAware ADS-B (WMSA / SZB)
11:48 3.2351 101.8325 26° Northeast 376 433 14,000 2,640 Climbing FlightAware ADS-B (WMSA / SZB)
11:49 3.2828 101.8554 26° Northeast 378 435 15,400 2,400 Climbing FlightAware ADS-B (WMSA / SZB)
11:49 3.3302 101.8781 26° Northeast 385 443 16,500 2,160 Climbing FlightAware ADS-B
11:50 3.3878 101.9058 26° Northeast 394 453 17,800 2,220 Climbing FlightAware ADS-B (WMSA / SZB)
11:50 3.4286 101.9253 26° Northeast 396 456 18,700 2,160 Climbing FlightAware ADS-B
11:51 3.4807 101.9496 25° Northeast 402 463 19,800 2,160 Climbing FlightAware ADS-B (WMSA / SZB)
11:51 3.5325 101.9736 25° Northeast 408 470 20,900 1,980 Climbing FlightAware ADS-B (WMSA / SZB)
11:52 3.5924 102.0018 26° Northeast 418 481 22,000 1,740 Climbing FlightAware ADS-B (WMSA / SZB)
11:52 3.6466 102.0276 25° Northeast 426 490 22,800 1,800 Climbing FlightAware ADS-B (WMSA / SZB)
11:53 3.7073 102.0563 25° Northeast 427 491 24,000 1,800 Climbing FlightAware ADS-B (WMSA / SZB)
11:53 3.7630 102.0825 25° Northeast 433 498 24,800 1,560 Climbing FlightAware ADS-B (WMSA / SZB)
11:54 3.8187 102.1087 25° Northeast 440 506 25,600 1,380 Climbing FlightAware ADS-B (WMSA / SZB)
11:54 3.8740 102.1346 25° Northeast 448 516 26,200 1,260 Climbing FlightAware ADS-B (WMSA / SZB)
11:55 3.9316 102.1618 25° Northeast 454 522 26,900 1,380 Climbing FlightAware ADS-B (WMSA / SZB)
11:55 3.9968 102.1926 25° Northeast 458 527 27,700 1,320 Climbing FlightAware ADS-B (WMSA / SZB)
11:56 4.0740 102.2289 25° Northeast 465 535 28,600 1,320 Climbing FlightAware ADS-B (WMSA / SZB)
11:57 4.1430 102.2615 25° Northeast 469 540 29,400 1,200 Climbing FlightAware ADS-B (WMSA / SZB)
12:01 4.7015 102.5251 25° Northeast 468 539 35,000 960 Climbing FlightAware ADS-B (WMKP / PEN)
12:02 4.7073 102.5278 25° Northeast 468 539 35,000  Level FlightAware ADS-B (WMKP / PEN)
12:50 6.9298 103.5901 25° Northeast 471 542 35,000  Level FlightAware ADS-B (SBGO / GYN)